Auburn, NH

12:55 AM EST on February 09, 2016 (GMT -0500)
Willow Court | | Change Station
CLOSE
Current Station
Personal Weather Station
Location: Auburn, NH
Elevation: 423 ft
Nearby Weather Stations

Elev 423 ft 42.97 °N, 71.32 °W | Updated 4 minutes ago

Snow
Snow
18.9 °F
Feels Like 19 °F
N
1.0
Wind Variable Wind from North
Gusts 3.0 mph

Today
High -- | Low -- °F
--% Chance of Precip.
Yesterday
High -- | Low -- °F
Precip. -- in
Pressure 29.83 in
Visibility 1.0 miles
Clouds Overcast 3000 ft
Windchill 19 °F
Dew Point 17 °F
Humidity 92%
Rainfall 0.00 in
Snow Depth Not available.
6:51 AM 5:08 PM
New Moon, 1% visible
METAR KMHT 090553Z 35005KT 1SM R35/P6000FT -SN BR OVC030 M07/M08 A2977 RMK AO2 SFC VIS 2 SLP101 4/008 P0000 60003 T10671083 11061 21067 58009
Pressure 29.83 in
Visibility 1.0 miles
Clouds Overcast 3000 ft
Windchill 19 °F
Dew Point 17 °F
Humidity 92%
Rainfall 0.00 in
Snow Depth Not available.
6:51 AM 5:08 PM
New Moon, 1% visible
METAR KMHT 090553Z 35005KT 1SM R35/P6000FT -SN BR OVC030 M07/M08 A2977 RMK AO2 SFC VIS 2 SLP101 4/008 P0000 60003 T10671083 11061 21067 58009

10-Day Weather Forecast

Almanac

Astronomy

Feb. 09, 2016 Rise Set
Actual Time
Civil Twilight
Nautical Twilight
Astronomical Twilight
Moon
Length of Visible Light
Length of Day
Tomorrow will be .
, % of the Moon is Illuminated

Today's Extremes

State Highs State Lows

Community

WunderPhotos

Upload Photos

1,891,566 photos uploaded!

WunderBlog® & News

Nearby

Air Quality

  Air Quality AQ Index Pollutant
Not available.

Snow Depth

Station Depth Elevation

Earthquake Activity

City Distance Mag. Time & Date
Minimum magnitude displayed is 2.5.

Coastal Water Temperatures

Place Temperature

Stations

Nearby Weather Stations

Station Location Temp. Windchill Dew Point Humidity Wind Precip. Elev Updated Type
                   

Watches & Warnings

Winter Storm Warning
Issued: 9:10 PM EST Feb. 8, 2016 – National Weather Service

... Winter Storm Warning remains in effect until 6 am EST
Tuesday...

* hazard types... snow.

* Accumulations... snow accumulation of 5 to 8 inches.

* Timing... snow continues tonight. Some light snow may continue
into Tuesday but the bulk of the accumulation will be over by
daybreak.

* Impacts... roads will remain snow covered and slippery. Strong
winds will cause blowing and drifting snow and could lead to low
visibility in spots.

* Winds... north 5 to 10 mph with gusts up to 20 mph.

* Visibilities... one quarter to one half mile at times.

* Temperatures... around 20.

Precautionary/preparedness actions...

A Winter Storm Warning means significant amounts of snow...
sleet... and ice are expected or occurring. Strong winds are also
possible. This will make travel very hazardous or impossible.